Time;durP1;ratioP1;P1;durP2;ratioP2;P2;SDS_P1;SDS_P2;PMS_P1;PMS_P2;Temp;Humidity;BMP_temperature;BMP_pressure;BME280_temperature;BME280_humidity;BME280_pressure;Samples;Min_cycle;Max_cycle;Signal;HPM_P1;HPM_P2
2024/01/18 00:00:13;;;;;;;17.67;11.48;;;;;;;;;;5087949;28;20765;-64
2024/01/18 00:02:39;;;;;;;17.85;12.18;;;;;;;;;;5077770;28;20052;-64
2024/01/18 00:05:06;;;;;;;20.95;11.02;;;;;;;;;;5083953;28;20456;-64
2024/01/18 00:07:33;;;;;;;18.60;11.80;;;;;;;;;;5076624;28;20048;-62
2024/01/18 00:09:59;;;;;;;19.98;12.63;;;;;;;;;;5085206;28;20139;-65
2024/01/18 00:12:26;;;;;;;20.48;12.98;;;;;;;;;;5082475;28;20048;-65
2024/01/18 00:14:53;;;;;;;21.65;12.68;;;;;;;;;;5072764;28;20132;-62
2024/01/18 00:17:19;;;;;;;19.65;13.50;;;;;;;;;;5085857;28;20464;-63
2024/01/18 00:19:46;;;;;;;20.75;12.52;;;;;;;;;;5074941;28;20140;-64
2024/01/18 00:22:12;;;;;;;19.50;12.73;;;;;;;;;;5082136;28;20059;-63
2024/01/18 00:24:38;;;;;;;23.15;13.43;;;;;;;;;;5067845;28;20106;-64
2024/01/18 00:27:06;;;;;;;20.88;13.70;;;;;;;;;;5087595;28;20051;-62
2024/01/18 00:29:33;;;;;;;19.30;13.07;;;;;;;;;;5086277;28;20168;-65
2024/01/18 00:31:59;;;;;;;22.23;13.65;;;;;;;;;;5082604;28;20063;-64
2024/01/18 00:34:26;;;;;;;19.45;13.63;;;;;;;;;;5086630;28;20061;-63
2024/01/18 00:36:52;;;;;;;19.35;12.30;;;;;;;;;;5076976;28;20722;-63
2024/01/18 00:39:20;;;;;;;18.90;13.13;;;;;;;;;;5086221;28;20044;-63
2024/01/18 00:41:47;;;;;;;18.27;13.02;;;;;;;;;;5080990;28;20055;-65
2024/01/18 00:44:14;;;;;;;20.83;13.82;;;;;;;;;;5084783;28;20155;-64
2024/01/18 00:46:40;;;;;;;23.65;13.32;;;;;;;;;;5086533;28;20094;-64
2024/01/18 00:49:07;;;;;;;20.85;12.43;;;;;;;;;;5062575;28;20075;-63
2024/01/18 00:51:33;;;;;;;24.05;13.73;;;;;;;;;;5064679;28;20116;-63
2024/01/18 00:54:02;;;;;;;23.30;14.30;;;;;;;;;;5082268;28;20059;-65
2024/01/18 00:56:28;;;;;;;21.02;13.77;;;;;;;;;;5084830;28;20052;-63
2024/01/18 00:58:55;;;;;;;23.58;14.63;;;;;;;;;;5088933;28;20138;-63
2024/01/18 01:01:22;;;;;;;26.33;14.57;;;;;;;;;;5070907;28;20122;-63
2024/01/18 01:03:48;;;;;;;24.40;13.98;;;;;;;;;;5074202;28;20079;-64
2024/01/18 01:06:15;;;;;;;25.38;14.48;;;;;;;;;;5065098;28;20128;-65
2024/01/18 01:08:41;;;;;;;21.77;13.95;;;;;;;;;;5078638;28;20094;-64
2024/01/18 01:11:08;;;;;;;24.70;15.15;;;;;;;;;;5072241;28;20040;-66
2024/01/18 01:13:35;;;;;;;25.45;15.40;;;;;;;;;;5076348;28;20044;-64
2024/01/18 01:16:01;;;;;;;28.42;15.50;;;;;;;;;;5077593;28;20523;-64
2024/01/18 01:18:28;;;;;;;25.92;15.75;;;;;;;;;;5069899;28;20130;-64
2024/01/18 01:20:58;;;;;;;25.58;15.70;;;;;;;;;;5076334;28;20571;-63
2024/01/18 01:23:25;;;;;;;23.48;15.32;;;;;;;;;;5077104;28;20047;-63
2024/01/18 01:25:51;;;;;;;22.25;14.38;;;;;;;;;;5074272;28;20045;-64
2024/01/18 01:28:18;;;;;;;25.05;14.90;;;;;;;;;;5075196;28;20660;-66
2024/01/18 01:30:44;;;;;;;21.75;15.13;;;;;;;;;;5068954;28;20056;-65
2024/01/18 01:33:10;;;;;;;21.98;15.00;;;;;;;;;;5084848;28;20047;-63
2024/01/18 01:35:37;;;;;;;21.00;14.00;;;;;;;;;;5072862;28;20036;-64
2024/01/18 01:38:03;;;;;;;21.00;13.88;;;;;;;;;;5081078;28;20048;-65
2024/01/18 01:40:30;;;;;;;24.75;14.73;;;;;;;;;;5068487;28;20768;-63
2024/01/18 01:42:56;;;;;;;21.48;13.95;;;;;;;;;;5070765;28;20048;-64
2024/01/18 01:45:23;;;;;;;23.23;14.57;;;;;;;;;;5075379;28;20078;-64
2024/01/18 01:47:50;;;;;;;25.17;14.90;;;;;;;;;;5048297;28;20105;-63
2024/01/18 01:50:17;;;;;;;22.17;14.10;;;;;;;;;;5076208;28;20052;-64
2024/01/18 01:52:44;;;;;;;25.35;15.20;;;;;;;;;;5076591;28;20438;-65
2024/01/18 01:55:12;;;;;;;25.42;15.80;;;;;;;;;;5077170;28;20126;-64
2024/01/18 01:57:40;;;;;;;25.67;15.20;;;;;;;;;;5077522;28;20488;-62
2024/01/18 02:00:07;;;;;;;26.98;17.15;;;;;;;;;;5065777;28;20044;-65
2024/01/18 02:02:34;;;;;;;24.25;15.02;;;;;;;;;;5062497;28;20050;-65
2024/01/18 02:05:00;;;;;;;27.38;16.20;;;;;;;;;;5071519;28;20405;-62
2024/01/18 02:07:28;;;;;;;25.52;15.85;;;;;;;;;;5075226;28;20399;-63
2024/01/18 02:09:55;;;;;;;21.60;14.40;;;;;;;;;;5067451;28;20452;-63
2024/01/18 02:12:23;;;;;;;27.23;16.23;;;;;;;;;;5060754;28;20056;-65
2024/01/18 02:14:50;;;;;;;24.85;14.82;;;;;;;;;;5079089;28;20048;-65
2024/01/18 02:17:16;;;;;;;25.50;15.88;;;;;;;;;;5077191;28;20810;-64
2024/01/18 02:19:43;;;;;;;21.20;14.25;;;;;;;;;;5067593;28;20048;-64
2024/01/18 02:22:09;;;;;;;28.20;14.93;;;;;;;;;;5074096;28;20472;-64
2024/01/18 02:24:40;;;;;;;25.00;15.85;;;;;;;;;;5067128;28;20057;-64
2024/01/18 02:27:07;;;;;;;23.98;15.07;;;;;;;;;;5079032;28;20079;-64
2024/01/18 02:29:33;;;;;;;22.65;15.00;;;;;;;;;;5073887;28;20903;-62
2024/01/18 02:31:59;;;;;;;21.58;14.48;;;;;;;;;;5083984;28;20075;-64
2024/01/18 02:34:26;;;;;;;22.65;14.68;;;;;;;;;;5084673;28;20048;-64
2024/01/18 02:36:52;;;;;;;26.85;15.10;;;;;;;;;;5082946;28;20059;-64
2024/01/18 02:39:19;;;;;;;26.15;14.68;;;;;;;;;;5078236;28;20170;-63
2024/01/18 02:41:46;;;;;;;22.45;14.70;;;;;;;;;;5078597;28;20044;-64
2024/01/18 02:44:13;;;;;;;26.63;16.20;;;;;;;;;;5059277;28;20080;-65
2024/01/18 02:46:40;;;;;;;25.98;14.65;;;;;;;;;;5077453;28;20473;-63
2024/01/18 02:49:06;;;;;;;22.30;15.25;;;;;;;;;;5085874;28;20140;-64
2024/01/18 02:51:33;;;;;;;25.85;14.93;;;;;;;;;;5081683;28;20672;-64
2024/01/18 02:53:59;;;;;;;24.05;15.25;;;;;;;;;;5082615;28;20135;-62
2024/01/18 02:56:26;;;;;;;23.42;14.02;;;;;;;;;;5083587;28;20098;-65
2024/01/18 02:58:52;;;;;;;23.92;14.82;;;;;;;;;;5083094;28;20495;-64
2024/01/18 03:01:19;;;;;;;23.23;14.93;;;;;;;;;;5076410;28;20056;-64
2024/01/18 03:03:45;;;;;;;23.92;15.43;;;;;;;;;;5067240;28;20059;-63
2024/01/18 03:06:12;;;;;;;26.23;15.20;;;;;;;;;;5078994;28;20133;-64
2024/01/18 03:08:38;;;;;;;25.00;15.90;;;;;;;;;;5058948;28;20055;-64
2024/01/18 03:11:04;;;;;;;23.27;15.18;;;;;;;;;;5088288;28;20056;-64
2024/01/18 03:13:31;;;;;;;24.65;15.70;;;;;;;;;;5071586;28;20136;-64
2024/01/18 03:15:58;;;;;;;24.52;13.68;;;;;;;;;;5080302;28;20056;-64
2024/01/18 03:18:24;;;;;;;22.55;14.35;;;;;;;;;;5071461;28;20109;-64
2024/01/18 03:20:51;;;;;;;23.63;14.48;;;;;;;;;;5080464;28;20048;-63
2024/01/18 03:23:17;;;;;;;20.48;13.82;;;;;;;;;;5089326;28;20546;-64
2024/01/18 03:25:43;;;;;;;21.33;14.73;;;;;;;;;;5071891;28;20600;-63
2024/01/18 03:28:10;;;;;;;22.80;14.35;;;;;;;;;;5074554;28;20048;-63
2024/01/18 03:30:36;;;;;;;20.27;13.48;;;;;;;;;;5080950;28;20044;-64
2024/01/18 03:33:03;;;;;;;20.08;13.13;;;;;;;;;;5086582;28;20044;-63
2024/01/18 03:35:29;;;;;;;23.45;13.55;;;;;;;;;;5085401;28;20143;-64
2024/01/18 03:37:56;;;;;;;23.65;14.07;;;;;;;;;;5065389;28;20548;-64
2024/01/18 03:40:22;;;;;;;23.30;13.50;;;;;;;;;;5077324;28;20471;-63
2024/01/18 03:42:49;;;;;;;23.48;14.35;;;;;;;;;;5072423;28;20812;-64
2024/01/18 03:45:15;;;;;;;24.25;13.63;;;;;;;;;;5077911;28;20792;-64
2024/01/18 03:47:42;;;;;;;16.92;11.95;;;;;;;;;;5082264;28;20131;-61
2024/01/18 03:50:13;;;;;;;20.92;14.10;;;;;;;;;;5075126;28;20051;-62
2024/01/18 03:52:40;;;;;;;27.88;13.65;;;;;;;;;;5082596;28;20051;-63
2024/01/18 03:55:06;;;;;;;18.95;12.23;;;;;;;;;;5067614;28;20162;-62
2024/01/18 03:57:33;;;;;;;20.52;12.27;;;;;;;;;;5071723;28;20497;-65
2024/01/18 03:59:59;;;;;;;23.42;12.82;;;;;;;;;;5074742;28;20152;-64
2024/01/18 04:02:26;;;;;;;22.00;13.23;;;;;;;;;;5072152;28;20052;-64
2024/01/18 04:04:53;;;;;;;19.00;12.23;;;;;;;;;;5085341;28;20098;-63
2024/01/18 04:07:19;;;;;;;20.85;12.38;;;;;;;;;;5071921;28;20064;-63
2024/01/18 04:09:46;;;;;;;23.45;13.20;;;;;;;;;;5069976;28;20056;-64
2024/01/18 04:12:13;;;;;;;20.80;11.95;;;;;;;;;;5085125;28;20049;-63
2024/01/18 04:14:43;;;;;;;17.95;11.00;;;;;;;;;;5082096;28;20048;-63
2024/01/18 04:17:11;;;;;;;18.75;11.32;;;;;;;;;;5069361;28;20047;-63
2024/01/18 04:19:41;;;;;;;21.75;11.23;;;;;;;;;;5075906;28;20181;-63
2024/01/18 04:22:08;;;;;;;20.90;11.20;;;;;;;;;;5078112;28;20555;-62
2024/01/18 04:24:34;;;;;;;17.35;11.20;;;;;;;;;;5078975;28;20048;-63
2024/01/18 04:27:01;;;;;;;15.95;10.25;;;;;;;;;;5078627;28;20047;-64
2024/01/18 04:29:28;;;;;;;17.48;11.43;;;;;;;;;;5082899;28;20046;-64
2024/01/18 04:31:55;;;;;;;21.33;11.30;;;;;;;;;;5080688;28;20129;-63
2024/01/18 04:34:21;;;;;;;19.08;10.02;;;;;;;;;;5083471;28;20072;-64
2024/01/18 04:36:47;;;;;;;18.40;10.98;;;;;;;;;;5077981;28;20079;-64
2024/01/18 04:39:14;;;;;;;18.35;10.98;;;;;;;;;;5062138;28;20597;-63
2024/01/18 04:41:41;;;;;;;18.08;11.50;;;;;;;;;;5084457;28;20056;-64
2024/01/18 04:44:07;;;;;;;19.38;11.20;;;;;;;;;;5073087;28;20162;-64
2024/01/18 04:46:34;;;;;;;19.38;11.60;;;;;;;;;;5084508;28;20160;-64
2024/01/18 04:49:00;;;;;;;16.25;10.38;;;;;;;;;;5073772;28;20109;-63
2024/01/18 04:51:26;;;;;;;19.02;11.52;;;;;;;;;;5078343;28;20056;-64
2024/01/18 04:53:53;;;;;;;17.45;10.35;;;;;;;;;;5084471;28;20110;-64
2024/01/18 04:56:19;;;;;;;19.58;10.45;;;;;;;;;;5079113;28;20466;-63
2024/01/18 04:58:46;;;;;;;20.20;11.77;;;;;;;;;;5074059;28;20040;-64
2024/01/18 05:01:13;;;;;;;17.20;11.55;;;;;;;;;;5080487;28;20055;-64
2024/01/18 05:03:39;;;;;;;21.20;11.70;;;;;;;;;;5080424;28;20155;-63
2024/01/18 05:06:08;;;;;;;17.50;10.73;;;;;;;;;;5076530;28;20075;-64
2024/01/18 05:08:35;;;;;;;19.17;12.07;;;;;;;;;;5085837;28;20624;-63
2024/01/18 05:11:02;;;;;;;18.35;11.18;;;;;;;;;;5082939;28;21022;-62
2024/01/18 05:13:28;;;;;;;22.30;11.27;;;;;;;;;;5068415;28;20044;-64
2024/01/18 05:15:55;;;;;;;17.30;11.63;;;;;;;;;;5084412;28;20637;-62
2024/01/18 05:18:22;;;;;;;17.42;10.98;;;;;;;;;;5076996;28;20050;-64
2024/01/18 05:20:48;;;;;;;19.27;11.07;;;;;;;;;;5079985;28;20146;-63
2024/01/18 05:23:14;;;;;;;17.00;10.52;;;;;;;;;;5084497;28;20105;-63
2024/01/18 05:25:41;;;;;;;16.10;10.73;;;;;;;;;;5079659;28;20530;-63
2024/01/18 05:28:07;;;;;;;23.50;11.65;;;;;;;;;;5078600;28;20579;-64
2024/01/18 05:30:33;;;;;;;18.73;11.02;;;;;;;;;;5071268;28;20048;-63
2024/01/18 05:33:00;;;;;;;19.83;12.10;;;;;;;;;;5081581;28;20047;-63
2024/01/18 05:35:26;;;;;;;18.10;11.60;;;;;;;;;;5082813;28;20044;-63
2024/01/18 05:37:53;;;;;;;20.42;12.10;;;;;;;;;;5078998;28;20089;-63
2024/01/18 05:40:21;;;;;;;18.00;11.20;;;;;;;;;;5091879;28;20052;-64
2024/01/18 05:42:47;;;;;;;20.15;11.13;;;;;;;;;;5089519;28;20048;-64
2024/01/18 05:45:14;;;;;;;19.52;11.55;;;;;;;;;;5084777;28;20048;-64
2024/01/18 05:47:41;;;;;;;22.25;11.85;;;;;;;;;;5075071;28;20054;-62
2024/01/18 05:50:08;;;;;;;16.55;11.45;;;;;;;;;;5081524;28;20476;-64
2024/01/18 05:52:35;;;;;;;18.77;11.80;;;;;;;;;;5085269;28;20127;-63
2024/01/18 05:55:02;;;;;;;18.65;11.35;;;;;;;;;;5077247;28;20048;-62
2024/01/18 05:57:29;;;;;;;21.52;12.50;;;;;;;;;;5074321;28;20046;-63
2024/01/18 05:59:55;;;;;;;16.88;11.60;;;;;;;;;;5078516;28;20040;-63
2024/01/18 06:02:22;;;;;;;18.02;11.27;;;;;;;;;;5077925;28;20133;-62
2024/01/18 06:04:48;;;;;;;16.10;10.15;;;;;;;;;;5079691;28;20046;-62
2024/01/18 06:07:15;;;;;;;18.70;10.82;;;;;;;;;;5072206;28;20040;-63
2024/01/18 06:09:41;;;;;;;20.55;11.82;;;;;;;;;;5084012;28;20489;-63
2024/01/18 06:12:08;;;;;;;22.90;11.55;;;;;;;;;;5079003;28;20102;-62
2024/01/18 06:14:34;;;;;;;22.17;10.85;;;;;;;;;;5082804;28;20048;-62
2024/01/18 06:17:00;;;;;;;19.60;10.57;;;;;;;;;;5075494;28;20052;-62
2024/01/18 06:19:27;;;;;;;20.65;9.82;;;;;;;;;;5079921;28;20061;-62
2024/01/18 06:21:54;;;;;;;16.00;9.70;;;;;;;;;;5077425;28;20048;-63
2024/01/18 06:24:21;;;;;;;13.80;9.68;;;;;;;;;;5078030;28;20052;-63
2024/01/18 06:26:47;;;;;;;17.85;10.27;;;;;;;;;;5080579;28;20056;-61
2024/01/18 06:29:16;;;;;;;18.67;11.02;;;;;;;;;;5080444;28;20044;-61
2024/01/18 06:31:42;;;;;;;17.85;10.48;;;;;;;;;;5088743;28;20583;-61
2024/01/18 06:34:10;;;;;;;19.80;10.43;;;;;;;;;;5091896;28;20124;-60
2024/01/18 06:36:39;;;;;;;15.77;9.57;;;;;;;;;;5082635;28;20137;-60
2024/01/18 06:39:05;;;;;;;16.38;11.00;;;;;;;;;;5088664;28;20121;-62
2024/01/18 06:41:32;;;;;;;24.77;14.30;;;;;;;;;;5100139;28;20043;-63
2024/01/18 06:43:59;;;;;;;24.83;11.60;;;;;;;;;;5086192;28;20080;-61
2024/01/18 06:46:25;;;;;;;21.90;11.77;;;;;;;;;;5079607;28;20053;-62
2024/01/18 06:48:57;;;;;;;16.30;11.02;;;;;;;;;;5084020;28;20045;-62
2024/01/18 06:51:23;;;;;;;20.60;11.48;;;;;;;;;;5085647;28;20054;-61
2024/01/18 06:53:50;;;;;;;20.23;11.95;;;;;;;;;;5079345;28;20040;-63
2024/01/18 06:56:17;;;;;;;21.95;11.48;;;;;;;;;;5088653;28;20051;-62
2024/01/18 06:58:43;;;;;;;20.98;11.82;;;;;;;;;;5078569;28;20908;-62
2024/01/18 07:01:10;;;;;;;17.45;10.40;;;;;;;;;;5084655;28;20129;-62
2024/01/18 07:03:37;;;;;;;18.48;10.82;;;;;;;;;;5079773;28;20163;-62
2024/01/18 07:06:04;;;;;;;15.80;10.05;;;;;;;;;;5075269;28;20067;-63
2024/01/18 07:08:30;;;;;;;18.25;10.32;;;;;;;;;;5086094;28;20516;-63
2024/01/18 07:10:57;;;;;;;17.02;10.10;;;;;;;;;;5081983;28;20084;-63
2024/01/18 07:13:26;;;;;;;16.23;10.00;;;;;;;;;;5072746;28;20173;-63
2024/01/18 07:15:53;;;;;;;16.23;9.90;;;;;;;;;;5077473;28;20052;-63
2024/01/18 07:18:19;;;;;;;17.88;10.52;;;;;;;;;;5077932;28;20052;-63
2024/01/18 07:20:46;;;;;;;14.20;9.35;;;;;;;;;;5087367;28;20102;-63
2024/01/18 07:23:13;;;;;;;16.92;9.73;;;;;;;;;;5075340;28;20135;-63
2024/01/18 07:25:40;;;;;;;20.48;10.38;;;;;;;;;;5072214;28;20648;-62
2024/01/18 07:28:06;;;;;;;19.58;11.52;;;;;;;;;;5071254;28;20040;-62
2024/01/18 07:30:32;;;;;;;27.85;15.20;;;;;;;;;;5076453;28;20048;-63
2024/01/18 07:32:59;;;;;;;23.38;13.20;;;;;;;;;;5074666;28;20148;-62
2024/01/18 07:35:25;;;;;;;18.13;10.73;;;;;;;;;;5063854;28;20052;-63
2024/01/18 07:37:52;;;;;;;17.52;10.30;;;;;;;;;;5087280;28;20044;-63
2024/01/18 07:40:19;;;;;;;20.25;9.80;;;;;;;;;;5081231;28;20401;-63
2024/01/18 07:42:45;;;;;;;15.95;9.07;;;;;;;;;;5071517;28;20040;-63
2024/01/18 07:45:14;;;;;;;15.73;9.40;;;;;;;;;;5087855;28;20044;-61
2024/01/18 07:47:40;;;;;;;;;;;;;;;;;;5088291;28;20568;-63
2024/01/18 07:50:08;;;;;;;13.88;8.80;;;;;;;;;;5086308;28;19974;-63
2024/01/18 07:52:54;;;;;;;16.48;8.73;;;;;;;;;;5079605;28;20053;-63
2024/01/18 07:55:21;;;;;;;19.60;10.07;;;;;;;;;;5083923;28;20050;-63
2024/01/18 07:57:48;;;;;;;16.73;8.00;;;;;;;;;;5081499;28;20415;-63
2024/01/18 08:00:15;;;;;;;15.85;8.45;;;;;;;;;;5087410;28;20047;-67
2024/01/18 08:02:41;;;;;;;14.23;7.97;;;;;;;;;;5081741;28;20055;-62
2024/01/18 08:05:07;;;;;;;15.48;8.52;;;;;;;;;;5085856;28;20487;-63
2024/01/18 08:07:34;;;;;;;15.82;7.78;;;;;;;;;;5096275;28;20631;-63
2024/01/18 08:10:01;;;;;;;15.88;8.32;;;;;;;;;;5079181;28;20073;-63
2024/01/18 08:12:27;;;;;;;18.30;7.57;;;;;;;;;;5071851;28;20056;-65
2024/01/18 08:14:53;;;;;;;15.20;7.97;;;;;;;;;;5068668;28;20604;-61
2024/01/18 08:17:20;;;;;;;15.15;8.10;;;;;;;;;;5090109;28;20044;-63
2024/01/18 08:19:46;;;;;;;15.77;8.35;;;;;;;;;;5100547;28;20071;-63
2024/01/18 08:22:14;;;;;;;13.70;7.95;;;;;;;;;;5080471;28;20040;-63
2024/01/18 08:24:41;;;;;;;14.25;8.02;;;;;;;;;;5077456;28;20044;-63
2024/01/18 08:27:08;;;;;;;14.25;8.30;;;;;;;;;;5069990;28;20052;-63
2024/01/18 08:29:35;;;;;;;17.52;7.85;;;;;;;;;;5057912;28;20484;-63
2024/01/18 08:32:03;;;;;;;13.20;8.18;;;;;;;;;;5090652;28;20051;-66
2024/01/18 08:34:29;;;;;;;14.47;7.87;;;;;;;;;;5085942;28;20706;-62
2024/01/18 08:36:55;;;;;;;15.82;7.68;;;;;;;;;;5083108;28;20361;-63
2024/01/18 08:39:22;;;;;;;17.40;9.57;;;;;;;;;;5082572;28;20067;-63
2024/01/18 08:41:48;;;;;;;15.43;9.48;;;;;;;;;;5093309;28;20052;-62
2024/01/18 08:44:15;;;;;;;16.33;9.43;;;;;;;;;;5077067;28;20469;-63
2024/01/18 08:46:41;;;;;;;12.57;8.65;;;;;;;;;;5083706;28;20079;-62
2024/01/18 08:49:08;;;;;;;17.48;10.60;;;;;;;;;;5081706;28;20141;-63
2024/01/18 08:51:34;;;;;;;15.48;9.30;;;;;;;;;;5074283;28;20048;-63
2024/01/18 08:54:01;;;;;;;13.80;8.07;;;;;;;;;;5079773;28;20043;-63
2024/01/18 08:56:27;;;;;;;19.65;9.13;;;;;;;;;;5068170;28;20052;-62
2024/01/18 08:58:57;;;;;;;13.82;8.30;;;;;;;;;;5083600;28;20048;-63
2024/01/18 09:01:23;;;;;;;17.83;9.25;;;;;;;;;;5057957;28;20396;-62
2024/01/18 09:03:51;;;;;;;15.82;8.52;;;;;;;;;;5079262;28;20043;-61
2024/01/18 09:06:18;;;;;;;14.88;9.00;;;;;;;;;;5077649;28;20109;-63
2024/01/18 09:08:45;;;;;;;16.67;7.90;;;;;;;;;;5074089;28;20525;-63
2024/01/18 09:11:11;;;;;;;13.85;8.13;;;;;;;;;;5069971;28;20052;-63
2024/01/18 09:13:38;;;;;;;12.77;7.80;;;;;;;;;;5065141;28;20063;-62
2024/01/18 09:16:04;;;;;;;17.88;8.18;;;;;;;;;;5076009;28;20051;-63
2024/01/18 09:18:31;;;;;;;15.73;8.77;;;;;;;;;;5081845;28;20519;-62
2024/01/18 09:20:57;;;;;;;11.95;7.38;;;;;;;;;;5064574;28;20052;-60
2024/01/18 09:23:24;;;;;;;16.27;7.53;;;;;;;;;;5085196;28;20154;-62
2024/01/18 09:25:50;;;;;;;12.15;6.78;;;;;;;;;;5078498;28;20751;-63
2024/01/18 09:28:16;;;;;;;15.68;7.93;;;;;;;;;;5067759;28;20466;-63
2024/01/18 09:30:43;;;;;;;16.88;8.00;;;;;;;;;;5078792;28;20064;-63
2024/01/18 09:33:10;;;;;;;14.00;8.25;;;;;;;;;;5077597;28;20039;-63
2024/01/18 09:35:38;;;;;;;16.42;7.68;;;;;;;;;;5082283;28;20041;-63
2024/01/18 09:38:04;;;;;;;11.82;7.53;;;;;;;;;;5079163;28;20044;-63
2024/01/18 09:40:31;;;;;;;14.43;7.70;;;;;;;;;;5076631;28;20464;-63
2024/01/18 09:42:59;;;;;;;20.67;8.20;;;;;;;;;;5067101;28;20060;-63
2024/01/18 09:45:28;;;;;;;13.10;7.65;;;;;;;;;;5080378;28;20579;-63
2024/01/18 09:47:55;;;;;;;16.55;7.88;;;;;;;;;;5056168;28;20056;-63
2024/01/18 09:50:21;;;;;;;15.18;7.13;;;;;;;;;;5066764;28;20481;-63
2024/01/18 09:52:49;;;;;;;16.05;6.22;;;;;;;;;;5076316;28;20618;-63
2024/01/18 09:55:16;;;;;;;14.20;6.68;;;;;;;;;;5067847;28;20056;-63
2024/01/18 09:57:45;;;;;;;12.95;6.60;;;;;;;;;;5077076;28;20044;-62
2024/01/18 10:00:11;;;;;;;;;;;;;;;;;;5081149;28;20047;-63
2024/01/18 10:02:38;;;;;;;10.98;4.60;;;;;;;;;;5077114;28;19928;-65
2024/01/18 10:05:04;;;;;;;11.23;5.03;;;;;;;;;;5066290;28;20135;-63
2024/01/18 10:07:31;;;;;;;11.18;5.10;;;;;;;;;;5063948;28;20070;-63
2024/01/18 10:09:58;;;;;;;9.40;4.55;;;;;;;;;;5084609;28;20044;-63
2024/01/18 10:12:31;;;;;;;10.20;4.40;;;;;;;;;;5075609;28;20127;-62
2024/01/18 10:14:58;;;;;;;10.40;4.13;;;;;;;;;;5078706;28;20153;-63
2024/01/18 10:17:25;;;;;;;7.47;4.20;;;;;;;;;;5088102;28;20043;-63
2024/01/18 10:19:54;;;;;;;7.72;4.35;;;;;;;;;;5059958;28;20046;-63
2024/01/18 10:22:21;;;;;;;12.02;4.90;;;;;;;;;;5078852;28;20055;-64
2024/01/18 10:24:49;;;;;;;11.98;5.68;;;;;;;;;;5071604;28;20128;-64
2024/01/18 10:27:17;;;;;;;12.70;5.30;;;;;;;;;;5074896;28;20056;-63
2024/01/18 10:29:44;;;;;;;;;;;;;;;;;;5084764;28;20052;-64
2024/01/18 10:32:10;;;;;;;11.00;4.45;;;;;;;;;;5078475;28;20280;-64
2024/01/18 10:34:37;;;;;;;8.23;4.40;;;;;;;;;;5084346;28;20124;-63
2024/01/18 10:37:05;;;;;;;15.00;5.10;;;;;;;;;;5072524;28;20059;-65
2024/01/18 10:39:39;;;;;;;8.20;4.68;;;;;;;;;;5086589;28;20036;-63
2024/01/18 10:42:12;;;;;;;7.28;4.72;;;;;;;;;;5063817;28;20041;-64
2024/01/18 10:44:45;;;;;;;7.88;4.68;;;;;;;;;;5086443;28;20075;-65
2024/01/18 10:47:15;;;;;;;9.73;4.43;;;;;;;;;;5081855;28;20071;-64
2024/01/18 10:49:43;;;;;;;7.82;4.47;;;;;;;;;;5076180;28;20051;-63
2024/01/18 10:52:11;;;;;;;10.73;4.40;;;;;;;;;;5085097;28;20084;-64
2024/01/18 10:54:37;;;;;;;9.80;4.95;;;;;;;;;;5057185;28;20534;-64
2024/01/18 10:57:09;;;;;;;14.18;5.15;;;;;;;;;;5074372;28;20668;-64
2024/01/18 10:59:36;;;;;;;13.27;4.78;;;;;;;;;;5076714;28;20135;-63
2024/01/18 11:02:03;;;;;;;7.68;3.97;;;;;;;;;;5079013;28;20529;-64
2024/01/18 11:04:33;;;;;;;8.77;4.07;;;;;;;;;;5077766;28;20131;-64
2024/01/18 11:06:59;;;;;;;8.75;3.70;;;;;;;;;;5068661;28;20442;-63
2024/01/18 11:09:27;;;;;;;12.77;3.75;;;;;;;;;;5080375;28;20051;-64
2024/01/18 11:11:55;;;;;;;7.80;3.92;;;;;;;;;;5070690;28;20047;-63
2024/01/18 11:14:22;;;;;;;;;;;;;;;;;;5083453;28;20059;-61
2024/01/18 11:16:49;;;;;;;7.78;3.88;;;;;;;;;;5068212;28;19970;-61
2024/01/18 11:19:38;;;;;;;7.85;3.90;;;;;;;;;;5075908;28;20048;-61
2024/01/18 11:22:07;;;;;;;10.93;3.38;;;;;;;;;;5077412;28;20063;-61
2024/01/18 11:24:33;;;;;;;8.25;3.80;;;;;;;;;;5058127;28;20488;-62
2024/01/18 11:27:00;;;;;;;8.77;3.92;;;;;;;;;;5084072;28;20044;-61
2024/01/18 11:29:34;;;;;;;11.23;3.40;;;;;;;;;;5080431;28;20063;-61
2024/01/18 11:32:00;;;;;;;7.60;2.88;;;;;;;;;;5086421;28;20672;-64
2024/01/18 11:34:31;;;;;;;8.27;3.05;;;;;;;;;;5085684;28;20570;-61
2024/01/18 11:37:10;;;;;;;13.45;3.10;;;;;;;;;;5077943;28;20135;-62
2024/01/18 11:39:46;;;;;;;6.15;2.92;;;;;;;;;;5064825;28;20048;-64
2024/01/18 11:42:20;;;;;;;5.40;2.33;;;;;;;;;;5091508;28;20409;-61
2024/01/18 11:44:53;;;;;;;6.70;3.05;;;;;;;;;;5093169;28;20427;-63
2024/01/18 11:47:21;;;;;;;7.85;2.88;;;;;;;;;;5080484;28;20102;-61
2024/01/18 11:49:47;;;;;;;7.50;2.53;;;;;;;;;;5085411;28;20052;-64
2024/01/18 11:52:15;;;;;;;9.27;3.00;;;;;;;;;;5080811;28;20436;-61
2024/01/18 11:54:46;;;;;;;6.43;2.95;;;;;;;;;;5079857;28;20055;-62
2024/01/18 11:57:13;;;;;;;9.65;2.97;;;;;;;;;;5083411;28;20043;-62
2024/01/18 11:59:46;;;;;;;6.45;2.80;;;;;;;;;;5080326;28;20048;-62
2024/01/18 12:02:12;;;;;;;4.93;2.45;;;;;;;;;;5087407;28;20876;-62
2024/01/18 12:04:39;;;;;;;13.88;3.88;;;;;;;;;;5077097;28;20083;-62
2024/01/18 12:07:06;;;;;;;3.80;2.65;;;;;;;;;;5082168;28;20036;-62
2024/01/18 12:09:33;;;;;;;10.75;2.92;;;;;;;;;;5083468;28;20048;-62
2024/01/18 12:12:00;;;;;;;6.47;2.70;;;;;;;;;;5062678;28;20068;-64
2024/01/18 12:14:27;;;;;;;6.70;3.38;;;;;;;;;;5080359;28;20450;-62
2024/01/18 12:16:54;;;;;;;9.57;3.97;;;;;;;;;;5069268;28;21044;-63
2024/01/18 12:19:30;;;;;;;8.15;3.40;;;;;;;;;;5084435;28;20059;-62
2024/01/18 12:21:57;;;;;;;7.63;3.30;;;;;;;;;;5075879;28;20440;-62
2024/01/18 12:24:24;;;;;;;9.27;3.58;;;;;;;;;;5081496;28;20044;-62
2024/01/18 12:26:50;;;;;;;6.50;3.08;;;;;;;;;;5077070;28;20067;-63
2024/01/18 12:29:18;;;;;;;6.65;3.08;;;;;;;;;;5076779;28;20047;-63
2024/01/18 12:31:47;;;;;;;10.02;3.83;;;;;;;;;;5085581;28;20047;-63
2024/01/18 12:34:13;;;;;;;8.10;3.78;;;;;;;;;;5057907;28;20526;-63
2024/01/18 12:36:40;;;;;;;9.48;3.90;;;;;;;;;;5066568;28;20048;-63
2024/01/18 12:39:07;;;;;;;10.45;3.40;;;;;;;;;;5081804;28;20048;-63
2024/01/18 12:41:34;;;;;;;7.22;2.90;;;;;;;;;;5068518;28;20070;-65
2024/01/18 12:44:06;;;;;;;8.18;2.88;;;;;;;;;;5074554;28;20059;-63
2024/01/18 12:46:36;;;;;;;7.88;3.05;;;;;;;;;;5076821;28;20468;-63
2024/01/18 12:49:03;;;;;;;7.43;3.03;;;;;;;;;;5076566;28;20047;-63
2024/01/18 12:51:29;;;;;;;7.57;2.75;;;;;;;;;;5076852;28;20040;-63
2024/01/18 12:53:56;;;;;;;7.32;2.70;;;;;;;;;;5081804;28;20101;-68
2024/01/18 12:56:22;;;;;;;7.45;2.15;;;;;;;;;;5083315;28;20044;-63
2024/01/18 12:58:49;;;;;;;5.75;1.98;;;;;;;;;;5076812;28;20048;-63
2024/01/18 13:01:28;;;;;;;6.55;1.92;;;;;;;;;;5081207;28;20094;-63
2024/01/18 13:04:10;;;;;;;5.70;1.63;;;;;;;;;;5074343;28;20624;-63
2024/01/18 13:06:36;;;;;;;13.38;3.83;;;;;;;;;;5054291;28;20044;-62
2024/01/18 13:09:20;;;;;;;4.75;2.00;;;;;;;;;;5078881;28;20067;-63
2024/01/18 13:11:47;;;;;;;7.03;1.60;;;;;;;;;;5055666;28;20048;-63
2024/01/18 13:14:17;;;;;;;3.58;1.27;;;;;;;;;;5075297;28;20048;-62
2024/01/18 13:16:44;;;;;;;5.22;1.20;;;;;;;;;;5065868;28;20329;-62
2024/01/18 13:19:13;;;;;;;2.25;1.35;;;;;;;;;;5074898;28;20052;-63
2024/01/18 13:21:44;;;;;;;3.05;1.60;;;;;;;;;;5078684;28;20192;-63
2024/01/18 13:24:11;;;;;;;7.13;1.67;;;;;;;;;;5084231;28;20484;-63
2024/01/18 13:26:38;;;;;;;5.45;1.50;;;;;;;;;;5073881;28;20044;-62
2024/01/18 13:29:06;;;;;;;5.63;1.45;;;;;;;;;;5085495;28;20042;-62
2024/01/18 13:31:33;;;;;;;5.85;1.42;;;;;;;;;;5084408;28;20098;-63
2024/01/18 13:34:00;;;;;;;4.90;1.60;;;;;;;;;;5060025;28;20056;-63
2024/01/18 13:36:26;;;;;;;4.57;1.20;;;;;;;;;;5083987;28;20066;-63
2024/01/18 13:38:53;;;;;;;5.10;1.25;;;;;;;;;;5076433;28;20691;-63
2024/01/18 13:41:19;;;;;;;6.10;1.23;;;;;;;;;;5061288;28;20137;-62
2024/01/18 13:43:46;;;;;;;3.50;1.48;;;;;;;;;;5060438;28;20045;-63
2024/01/18 13:46:14;;;;;;;2.72;1.27;;;;;;;;;;5079981;28;20165;-62
2024/01/18 13:48:44;;;;;;;3.58;1.10;;;;;;;;;;5071670;28;20052;-62
2024/01/18 13:51:13;;;;;;;2.88;1.15;;;;;;;;;;5055869;28;20110;-62
2024/01/18 13:53:40;;;;;;;4.95;1.23;;;;;;;;;;5077624;28;20125;-63
2024/01/18 13:56:06;;;;;;;4.78;1.42;;;;;;;;;;5074823;28;20052;-63
2024/01/18 13:58:33;;;;;;;5.00;1.17;;;;;;;;;;5066780;28;20377;-62
2024/01/18 14:00:59;;;;;;;2.90;1.00;;;;;;;;;;5086293;28;20056;-65
2024/01/18 14:03:26;;;;;;;1.60;0.90;;;;;;;;;;5076216;28;20546;-63
2024/01/18 14:05:52;;;;;;;2.65;1.30;;;;;;;;;;5080767;28;20132;-62
2024/01/18 14:08:19;;;;;;;4.07;1.17;;;;;;;;;;5076777;28;20124;-63
2024/01/18 14:10:46;;;;;;;5.78;1.42;;;;;;;;;;5064800;28;20046;-65
2024/01/18 14:13:12;;;;;;;2.97;1.23;;;;;;;;;;5083945;28;20048;-65
2024/01/18 14:15:38;;;;;;;5.20;1.10;;;;;;;;;;5079004;28;20389;-62
2024/01/18 14:18:05;;;;;;;3.53;0.90;;;;;;;;;;5096643;28;20412;-62
2024/01/18 14:20:32;;;;;;;5.93;1.25;;;;;;;;;;5078416;28;20059;-64
2024/01/18 14:22:58;;;;;;;2.83;1.00;;;;;;;;;;5077066;28;20052;-62
2024/01/18 14:25:24;;;;;;;5.82;1.13;;;;;;;;;;5080099;28;20720;-62
2024/01/18 14:27:51;;;;;;;2.50;0.80;;;;;;;;;;5079938;28;20067;-61